Terminal Aerodrome Forecast
Issued by NWS Twin Cities, MN

Home | Current Version | Previous Version | Graphics & Text | Print | Product List | Glossary On
Versions: 1 2 3 4 5 6 7 8 9 10 11 12 13 14 15 16 17 18 19 20 21 22 23 24
433
FTUS43 KMPX 201047 AAA
TAFEAU
TAF AMD
KEAU 201047Z 2011/2106 13003KT 2SM -DZ BR OVC005
     FM201600 11005KT 1SM -DZ BR OVC003
     FM202000 12005KT 3SM BR OVC005
     FM210000 13004KT 2SM -DZ BR OVC003=

USA.gov is the U.S. government's official web portal to all federal, state and local government web resources and services.